createdAt,value
2018-04-27T00:00:50.578Z,8.00
2018-04-27T00:03:20.673Z,8.00
2018-04-27T00:05:49.240Z,7.90
2018-04-27T00:08:18.690Z,7.90
2018-04-27T00:10:46.419Z,7.90
2018-04-27T00:13:14.053Z,7.90
2018-04-27T00:15:42.060Z,7.90
2018-04-27T00:18:10.370Z,7.90
2018-04-27T00:20:38.079Z,7.80
2018-04-27T00:23:06.309Z,8.00
2018-04-27T00:25:33.919Z,8.00
2018-04-27T00:28:01.758Z,8.10
2018-04-27T00:30:29.439Z,8.10
2018-04-27T00:32:57.843Z,8.30
2018-04-27T00:35:25.518Z,8.30
2018-04-27T00:37:54.078Z,8.40
2018-04-27T00:40:21.429Z,8.30
2018-04-27T00:42:49.818Z,8.20
2018-04-27T00:45:17.390Z,8.20
2018-04-27T00:47:44.680Z,8.10
2018-04-27T00:50:13.069Z,8.00
2018-04-27T00:52:58.370Z,7.90
2018-04-27T00:55:25.989Z,7.80
2018-04-27T00:57:54.199Z,7.70
2018-04-27T01:00:21.559Z,7.60
2018-04-27T01:02:49.070Z,7.60
2018-04-27T01:05:17.520Z,7.50
2018-04-27T01:07:45.211Z,7.40
2018-04-27T01:10:14.480Z,7.30
2018-04-27T01:12:42.011Z,7.20
2018-04-27T01:15:11.692Z,7.20
2018-04-27T01:17:40.400Z,7.30
2018-04-27T01:20:07.850Z,7.40
2018-04-27T01:22:35.523Z,7.40
2018-04-27T01:25:03.064Z,7.30
2018-04-27T01:27:30.360Z,7.20
2018-04-27T01:29:57.820Z,7.20
2018-04-27T01:32:25.929Z,7.10
2018-04-27T01:34:53.630Z,7.10
2018-04-27T01:37:20.948Z,7.20
2018-04-27T01:39:49.049Z,7.20
2018-04-27T01:42:16.578Z,7.10
2018-04-27T01:44:45.119Z,7.10
2018-04-27T01:47:13.489Z,7.00
2018-04-27T01:49:40.990Z,7.00
2018-04-27T01:52:08.361Z,7.10
2018-04-27T01:54:35.910Z,7.10
2018-04-27T01:57:03.404Z,7.20
2018-04-27T01:59:30.821Z,7.20
2018-04-27T02:01:57.893Z,7.20
2018-04-27T02:04:27.791Z,7.20
2018-04-27T02:06:55.300Z,7.20
2018-04-27T02:09:22.671Z,7.10
2018-04-27T02:11:49.952Z,7.00
2018-04-27T02:14:17.731Z,7.00
2018-04-27T02:16:44.937Z,6.90
2018-04-27T02:19:12.441Z,6.90
2018-04-27T02:21:40.210Z,6.90
2018-04-27T02:24:07.651Z,6.90
2018-04-27T02:26:35.472Z,6.90
2018-04-27T02:29:02.886Z,7.00
2018-04-27T02:31:30.762Z,7.00
2018-04-27T02:33:58.961Z,7.10
2018-04-27T02:36:27.230Z,7.10
2018-04-27T02:38:54.631Z,7.20
2018-04-27T02:41:22.189Z,7.20
2018-04-27T02:43:49.611Z,7.20
2018-04-27T02:46:16.969Z,7.20
2018-04-27T02:48:44.229Z,7.20
2018-04-27T02:51:11.920Z,7.20
2018-04-27T02:53:39.381Z,7.20
2018-04-27T02:56:06.850Z,7.20
2018-04-27T02:58:34.633Z,7.20
2018-04-27T03:01:02.021Z,7.20
2018-04-27T03:03:29.651Z,7.30
2018-04-27T03:05:57.171Z,7.30
2018-04-27T03:08:24.941Z,7.30
2018-04-27T03:10:52.362Z,7.30
2018-04-27T03:13:20.200Z,7.20
2018-04-27T03:15:47.500Z,7.20
2018-04-27T03:18:15.433Z,7.20
2018-04-27T03:20:42.741Z,7.20
2018-04-27T03:23:10.391Z,7.20
2018-04-27T03:25:37.810Z,7.20
2018-04-27T03:28:05.231Z,7.20
2018-04-27T03:30:32.761Z,7.40
2018-04-27T03:32:59.920Z,7.70
2018-04-27T03:35:27.261Z,7.80
2018-04-27T03:37:54.710Z,7.90
2018-04-27T03:40:23.052Z,8.10
2018-04-27T03:42:50.421Z,8.10
2018-04-27T03:45:17.391Z,8.00
2018-04-27T03:47:44.830Z,8.00
2018-04-27T03:50:12.511Z,8.00
2018-04-27T03:52:40.070Z,8.00
2018-04-27T03:55:08.013Z,8.00
2018-04-27T03:57:36.250Z,7.90
2018-04-27T04:00:21.880Z,7.80
2018-04-27T04:03:08.690Z,7.60
2018-04-27T04:05:37.329Z,7.40
2018-04-27T04:08:07.380Z,7.40
2018-04-27T04:10:35.130Z,7.30
2018-04-27T04:13:02.620Z,7.20
2018-04-27T04:15:29.839Z,7.20
2018-04-27T04:17:57.171Z,7.10
2018-04-27T04:20:26.100Z,7.10
2018-04-27T04:22:53.819Z,7.20
2018-04-27T04:25:21.349Z,7.20
2018-04-27T04:30:42.590Z,7.10
2018-04-27T04:33:11.600Z,7.20
2018-04-27T04:35:38.989Z,7.20
2018-04-27T04:38:07.250Z,7.20
2018-04-27T04:40:37.759Z,7.30
2018-04-27T04:43:05.060Z,7.40
2018-04-27T04:45:32.480Z,7.50
2018-04-27T04:47:59.863Z,7.70
2018-04-27T04:50:27.190Z,7.70
2018-04-27T04:52:54.532Z,7.80
2018-04-27T04:55:22.114Z,8.00
2018-04-27T04:57:50.271Z,8.10
2018-04-27T05:00:18.479Z,8.40
2018-04-27T05:02:45.858Z,8.60
2018-04-27T05:05:13.469Z,8.80
2018-04-27T05:07:40.810Z,9.10
2018-04-27T05:10:08.090Z,9.30
2018-04-27T05:12:35.531Z,9.60
2018-04-27T05:15:04.319Z,10.00
2018-04-27T05:17:31.760Z,10.50
2018-04-27T05:20:01.095Z,11.10
2018-04-27T05:22:32.831Z,11.70
2018-04-27T05:25:03.030Z,12.20
2018-04-27T05:27:30.480Z,12.60
2018-04-27T05:29:59.507Z,13.10
2018-04-27T05:32:27.020Z,13.60
2018-04-27T05:34:54.590Z,13.80
2018-04-27T05:37:23.338Z,13.80
2018-04-27T05:39:52.229Z,14.00
2018-04-27T05:42:20.592Z,13.90
2018-04-27T05:44:49.019Z,13.60
2018-04-27T05:47:17.121Z,13.60
2018-04-27T05:49:44.749Z,13.20
2018-04-27T05:52:14.459Z,12.90
2018-04-27T05:54:42.771Z,12.60
2018-04-27T05:57:11.159Z,12.20
2018-04-27T05:59:38.929Z,11.70
2018-04-27T06:02:06.331Z,11.40
2018-04-27T06:04:35.913Z,11.10
2018-04-27T06:07:03.489Z,10.90
2018-04-27T06:09:30.969Z,10.90
2018-04-27T06:11:58.480Z,10.80
2018-04-27T06:14:26.949Z,10.90
2018-04-27T06:16:56.138Z,10.90
2018-04-27T06:19:23.700Z,11.00
2018-04-27T06:21:52.930Z,11.10
2018-04-27T06:24:20.120Z,11.10
2018-04-27T06:26:47.549Z,11.10
2018-04-27T06:29:14.729Z,11.10
2018-04-27T06:31:42.085Z,11.10
2018-04-27T06:34:09.509Z,11.20
2018-04-27T06:36:36.984Z,11.30
2018-04-27T06:39:04.649Z,11.30
2018-04-27T06:41:32.149Z,11.30
2018-04-27T06:44:00.248Z,11.30
2018-04-27T06:46:27.959Z,11.40
2018-04-27T06:48:56.279Z,11.50
2018-04-27T06:51:24.558Z,11.50
2018-04-27T06:53:52.210Z,11.50
2018-04-27T06:56:20.582Z,11.70
2018-04-27T06:58:49.149Z,11.80
2018-04-27T07:01:16.649Z,11.80
2018-04-27T07:03:44.308Z,11.90
2018-04-27T07:06:12.059Z,12.00
2018-04-27T07:08:39.689Z,12.10
2018-04-27T07:11:07.239Z,12.10
2018-04-27T07:13:34.829Z,12.20
2018-04-27T07:16:02.461Z,12.30
2018-04-27T07:18:29.869Z,12.40
2018-04-27T07:20:57.179Z,12.40
2018-04-27T07:23:24.579Z,12.50
2018-04-27T07:25:51.790Z,12.60
2018-04-27T07:28:19.069Z,12.80
2018-04-27T07:30:46.621Z,12.80
2018-04-27T07:33:14.329Z,12.80
2018-04-27T07:35:47.670Z,12.90
2018-04-27T07:38:15.989Z,13.10
2018-04-27T07:40:43.619Z,13.10
2018-04-27T07:43:10.980Z,13.20
2018-04-27T07:45:38.600Z,13.30
2018-04-27T07:48:06.158Z,13.40
2018-04-27T07:50:34.509Z,13.50
2018-04-27T07:53:04.119Z,13.40
2018-04-27T07:55:31.709Z,13.50
2018-04-27T07:57:59.359Z,13.70
2018-04-27T08:00:29.929Z,13.90
2018-04-27T08:02:57.581Z,14.10
2018-04-27T08:05:25.119Z,14.20
2018-04-27T08:07:52.749Z,14.30
2018-04-27T08:10:20.961Z,14.40
2018-04-27T08:12:48.339Z,14.50
2018-04-27T08:15:15.860Z,14.70
2018-04-27T08:17:44.431Z,14.80
2018-04-27T08:20:12.239Z,14.80
2018-04-27T08:22:39.890Z,14.80
2018-04-27T08:25:07.358Z,14.80
2018-04-27T08:27:35.029Z,14.90
2018-04-27T08:30:02.709Z,14.90
2018-04-27T08:32:30.168Z,15.00
2018-04-27T08:34:57.619Z,15.10
2018-04-27T08:37:27.338Z,15.20
2018-04-27T08:39:55.079Z,15.30
2018-04-27T08:42:22.479Z,15.50
2018-04-27T08:44:49.829Z,15.70
2018-04-27T08:47:17.409Z,15.80
2018-04-27T08:49:44.829Z,15.70
2018-04-27T08:52:12.509Z,15.90
2018-04-27T08:54:40.949Z,15.90
2018-04-27T08:57:08.449Z,16.00
2018-04-27T08:59:36.160Z,16.20
2018-04-27T09:02:03.409Z,16.20
2018-04-27T09:04:30.999Z,16.30
2018-04-27T09:06:58.540Z,16.50
2018-04-27T09:09:26.102Z,16.50
2018-04-27T09:11:53.462Z,16.80
2018-04-27T09:14:21.652Z,16.90
2018-04-27T09:16:49.704Z,16.90
2018-04-27T09:19:17.112Z,16.80
2018-04-27T09:21:44.601Z,16.90
2018-04-27T09:24:12.032Z,17.00
2018-04-27T09:26:39.712Z,17.10
2018-04-27T09:29:07.072Z,17.20
2018-04-27T09:31:35.312Z,17.20
2018-04-27T09:34:02.621Z,17.30
2018-04-27T09:36:30.052Z,17.40
2018-04-27T09:38:58.342Z,17.50
2018-04-27T09:41:26.292Z,17.60
2018-04-27T09:43:54.203Z,17.60
2018-04-27T09:46:22.666Z,17.70
2018-04-27T09:48:50.102Z,17.70
2018-04-27T09:51:17.681Z,17.70
2018-04-27T09:53:46.712Z,18.10
2018-04-27T09:56:14.161Z,18.10
2018-04-27T09:58:41.651Z,18.40
2018-04-27T10:01:09.260Z,18.40
2018-04-27T10:03:36.829Z,18.30
2018-04-27T10:06:04.510Z,18.30
2018-04-27T10:08:32.871Z,18.30
2018-04-27T10:11:07.032Z,18.30
2018-04-27T10:13:34.659Z,18.50
2018-04-27T10:16:02.020Z,18.60
2018-04-27T10:18:29.462Z,18.60
2018-04-27T10:20:57.661Z,18.80
2018-04-27T10:23:25.071Z,18.80
2018-04-27T10:25:52.500Z,18.90
2018-04-27T10:28:21.061Z,19.00
2018-04-27T10:30:48.572Z,19.00
2018-04-27T10:33:16.180Z,19.10
2018-04-27T10:35:46.660Z,19.20
2018-04-27T10:38:14.720Z,19.20
2018-04-27T10:40:42.769Z,19.10
2018-04-27T10:43:10.320Z,19.10
2018-04-27T10:45:37.690Z,19.20
2018-04-27T10:48:06.309Z,19.30
2018-04-27T10:50:33.909Z,19.40
2018-04-27T10:53:01.269Z,19.50
2018-04-27T10:55:28.919Z,19.60
2018-04-27T10:57:56.380Z,19.60
2018-04-27T11:00:23.919Z,19.70
2018-04-27T11:02:51.549Z,19.80
2018-04-27T11:05:19.339Z,19.70
2018-04-27T11:07:48.281Z,19.80
2018-04-27T11:10:15.861Z,19.80
2018-04-27T11:12:43.461Z,19.90
2018-04-27T11:15:10.844Z,20.20
2018-04-27T11:17:38.832Z,20.20
2018-04-27T11:20:06.320Z,20.20
2018-04-27T11:22:35.071Z,20.10
2018-04-27T11:25:02.713Z,20.10
2018-04-27T11:27:30.184Z,20.00
2018-04-27T11:29:57.681Z,20.00
2018-04-27T11:32:25.472Z,20.00
2018-04-27T11:34:52.732Z,20.00
2018-04-27T11:37:20.793Z,20.00
2018-04-27T11:39:48.372Z,20.00
2018-04-27T11:42:15.912Z,20.10
2018-04-27T11:44:43.301Z,20.20
2018-04-27T11:47:11.022Z,20.20
2018-04-27T11:49:39.592Z,20.20
2018-04-27T11:52:07.161Z,20.10
2018-04-27T11:54:35.641Z,20.00
2018-04-27T11:57:04.063Z,20.10
2018-04-27T11:59:31.772Z,20.10
2018-04-27T12:01:59.876Z,20.20
2018-04-27T12:04:27.531Z,20.30
2018-04-27T12:06:55.272Z,20.60
2018-04-27T12:09:24.001Z,20.50
2018-04-27T12:11:51.621Z,20.50
2018-04-27T12:14:19.341Z,20.50
2018-04-27T12:16:46.912Z,20.70
2018-04-27T12:19:14.361Z,20.70
2018-04-27T12:21:42.280Z,20.80
2018-04-27T12:24:09.781Z,20.90
2018-04-27T12:26:37.881Z,21.00
2018-04-27T12:29:05.461Z,21.00
2018-04-27T12:31:32.889Z,21.00
2018-04-27T12:34:01.427Z,20.80
2018-04-27T12:36:29.751Z,20.80
2018-04-27T12:39:00.142Z,20.80
2018-04-27T12:41:28.341Z,20.80
2018-04-27T12:43:57.771Z,20.80
2018-04-27T12:46:26.102Z,20.80
2018-04-27T12:48:53.511Z,20.80
2018-04-27T12:51:21.352Z,20.90
2018-04-27T12:53:49.402Z,21.00
2018-04-27T12:56:17.581Z,21.10
2018-04-27T12:58:45.652Z,21.10
2018-04-27T13:01:13.131Z,21.20
2018-04-27T13:03:41.761Z,21.20
2018-04-27T13:06:09.524Z,21.20
2018-04-27T13:08:37.471Z,21.20
2018-04-27T13:11:04.911Z,21.10
2018-04-27T13:13:33.651Z,21.30
2018-04-27T13:16:01.682Z,21.30
2018-04-27T13:18:31.042Z,21.30
2018-04-27T13:20:58.766Z,21.30
2018-04-27T13:23:26.272Z,21.30
2018-04-27T13:25:54.102Z,21.30
2018-04-27T13:28:21.475Z,21.40
2018-04-27T13:30:49.331Z,21.40
2018-04-27T13:33:18.281Z,21.50
2018-04-27T13:35:47.172Z,21.40
2018-04-27T13:38:15.553Z,21.50
2018-04-27T13:40:42.913Z,21.50
2018-04-27T13:43:10.371Z,21.50
2018-04-27T13:45:37.762Z,21.40
2018-04-27T13:48:05.541Z,21.50
2018-04-27T13:50:34.300Z,21.60
2018-04-27T13:53:01.862Z,21.50
2018-04-27T13:55:29.401Z,21.50
2018-04-27T13:57:56.981Z,21.40
2018-04-27T14:00:24.072Z,21.40
2018-04-27T14:04:18.775Z,21.50
2018-04-27T14:06:48.732Z,21.50
2018-04-27T14:09:16.872Z,21.50
2018-04-27T14:11:45.443Z,21.60
2018-04-27T14:14:13.052Z,21.70
2018-04-27T14:16:40.582Z,21.70
2018-04-27T14:19:08.382Z,21.70
2018-04-27T14:21:35.982Z,21.80
2018-04-27T14:24:03.912Z,21.80
2018-04-27T14:26:31.651Z,21.80
2018-04-27T14:28:58.942Z,21.80
2018-04-27T14:31:26.742Z,21.80
2018-04-27T14:33:54.892Z,21.80
2018-04-27T14:40:22.222Z,21.90
2018-04-27T14:42:50.431Z,21.90
2018-04-27T14:45:18.621Z,21.90
2018-04-27T14:47:47.022Z,22.00
2018-04-27T14:50:14.923Z,22.10
2018-04-27T14:52:42.381Z,22.10
2018-04-27T14:55:10.001Z,22.10
2018-04-27T14:57:37.872Z,22.10
2018-04-27T15:00:06.464Z,22.00
2018-04-27T15:02:34.891Z,22.00
2018-04-27T15:05:02.643Z,22.00
2018-04-27T15:07:30.421Z,22.00
2018-04-27T15:09:58.111Z,22.00
2018-04-27T15:12:25.941Z,21.90
2018-04-27T15:14:53.530Z,22.00
2018-04-27T15:17:20.871Z,22.00
2018-04-27T15:19:48.862Z,22.00
2018-04-27T15:22:16.151Z,22.00
2018-04-27T15:24:44.180Z,22.00
2018-04-27T15:27:13.471Z,22.00
2018-04-27T15:29:41.023Z,22.00
2018-04-27T15:32:10.964Z,22.00
2018-04-27T15:34:38.460Z,22.10
2018-04-27T15:37:07.402Z,22.00
2018-04-27T15:39:35.290Z,22.00
2018-04-27T15:42:04.091Z,22.00
2018-04-27T15:44:33.951Z,22.00
2018-04-27T15:47:02.232Z,22.10
2018-04-27T15:49:29.843Z,22.10
2018-04-27T15:51:57.515Z,22.20
2018-04-27T15:54:25.200Z,22.10
2018-04-27T15:56:52.981Z,22.00
2018-04-27T15:59:22.016Z,22.00
2018-04-27T16:01:49.437Z,22.00
2018-04-27T16:04:17.801Z,22.00
2018-04-27T16:06:45.510Z,22.00
2018-04-27T16:09:13.846Z,22.10
2018-04-27T16:11:42.739Z,22.20
2018-04-27T16:14:11.241Z,22.20
2018-04-27T16:16:39.411Z,22.10
2018-04-27T16:19:07.381Z,22.10
2018-04-27T16:21:35.339Z,22.20
2018-04-27T16:24:03.611Z,22.10
2018-04-27T16:26:31.863Z,22.10
2018-04-27T16:28:59.823Z,22.00
2018-04-27T16:31:29.373Z,22.00
2018-04-27T16:33:57.127Z,21.90
2018-04-27T16:36:24.681Z,22.00
2018-04-27T16:38:54.151Z,21.90
2018-04-27T16:41:21.721Z,21.90
2018-04-27T16:43:50.043Z,21.90
2018-04-27T16:46:18.670Z,21.90
2018-04-27T16:48:47.472Z,21.90
2018-04-27T16:51:15.711Z,21.90
2018-04-27T16:53:43.901Z,21.90
2018-04-27T16:56:11.434Z,21.80
2018-04-27T16:58:38.982Z,21.70
2018-04-27T17:01:08.610Z,21.60
2018-04-27T17:03:36.910Z,21.40
2018-04-27T17:06:04.851Z,21.50
2018-04-27T17:08:34.010Z,21.30
2018-04-27T17:11:01.711Z,21.30
2018-04-27T17:13:31.802Z,21.20
2018-04-27T17:15:59.271Z,21.20
2018-04-27T17:18:26.771Z,21.30
2018-04-27T17:20:55.140Z,21.30
2018-04-27T17:23:23.070Z,21.40
2018-04-27T17:25:51.680Z,21.40
2018-04-27T17:28:19.281Z,21.40
2018-04-27T17:30:47.361Z,21.40
2018-04-27T17:33:15.039Z,21.40
2018-04-27T17:35:43.781Z,21.30
2018-04-27T17:38:11.441Z,21.20
2018-04-27T17:40:41.451Z,21.20
2018-04-27T17:43:09.801Z,21.00
2018-04-27T17:45:38.563Z,20.40
2018-04-27T17:48:07.364Z,20.20
2018-04-27T17:50:34.693Z,20.20
2018-04-27T17:53:02.240Z,20.00
2018-04-27T17:55:30.274Z,19.90
2018-04-27T17:57:57.972Z,19.80
2018-04-27T18:00:25.612Z,19.60
2018-04-27T18:02:53.090Z,19.40
2018-04-27T18:05:21.041Z,19.30
2018-04-27T18:07:48.353Z,19.20
2018-04-27T18:10:18.051Z,18.90
2018-04-27T18:12:46.094Z,18.80
2018-04-27T18:15:13.681Z,18.80
2018-04-27T18:17:41.313Z,18.60
2018-04-27T18:20:10.180Z,18.50
2018-04-27T18:22:37.631Z,18.40
2018-04-27T18:25:06.452Z,18.30
2018-04-27T18:27:34.542Z,18.10
2018-04-27T18:30:02.232Z,18.00
2018-04-27T18:32:31.282Z,17.80
2018-04-27T18:34:59.123Z,17.80
2018-04-27T18:37:27.091Z,17.70
2018-04-27T18:39:55.751Z,17.60
2018-04-27T18:42:23.247Z,17.40
2018-04-27T18:44:50.791Z,17.20
2018-04-27T18:47:18.721Z,17.10
2018-04-27T18:49:47.192Z,16.90
2018-04-27T18:52:16.461Z,16.80
2018-04-27T18:54:44.541Z,16.80
2018-04-27T18:57:12.915Z,16.70
2018-04-27T18:59:45.132Z,16.70
2018-04-27T19:02:12.457Z,16.60
2018-04-27T19:04:40.721Z,16.70
2018-04-27T19:07:08.371Z,16.60
2018-04-27T19:09:36.181Z,16.70
2018-04-27T19:12:03.983Z,16.70
2018-04-27T19:14:31.581Z,16.70
2018-04-27T19:16:59.132Z,16.70
2018-04-27T19:19:27.321Z,16.80
2018-04-27T19:21:56.261Z,16.80
2018-04-27T19:24:24.131Z,16.90
2018-04-27T19:26:51.692Z,16.90
2018-04-27T19:29:19.540Z,16.90
2018-04-27T19:31:47.231Z,16.90
2018-04-27T19:34:16.591Z,16.80
2018-04-27T19:36:45.172Z,16.80
2018-04-27T19:39:14.871Z,16.70
2018-04-27T19:41:43.292Z,16.70
2018-04-27T19:44:11.002Z,16.70
2018-04-27T19:46:38.941Z,16.70
2018-04-27T19:49:07.021Z,16.60
2018-04-27T19:51:35.231Z,16.60
2018-04-27T19:54:04.106Z,16.50
2018-04-27T19:56:31.922Z,16.30
2018-04-27T19:59:00.178Z,16.20
2018-04-27T20:01:27.682Z,16.10
2018-04-27T20:03:55.325Z,16.00
2018-04-27T20:06:22.981Z,16.00
2018-04-27T20:08:51.981Z,15.90
2018-04-27T20:11:19.587Z,15.90
2018-04-27T20:13:47.135Z,15.80
2018-04-27T20:16:46.782Z,15.70
2018-04-27T20:19:14.571Z,15.60
2018-04-27T20:21:44.062Z,15.50
2018-04-27T20:24:13.732Z,15.40
2018-04-27T20:26:42.842Z,15.30
2018-04-27T20:29:11.361Z,15.20
2018-04-27T20:31:40.128Z,15.10
2018-04-27T20:34:10.045Z,15.00
2018-04-27T20:36:37.781Z,14.90
2018-04-27T20:39:05.492Z,14.80
2018-04-27T20:41:36.511Z,14.60
2018-04-27T20:44:04.082Z,14.60
2018-04-27T20:46:32.222Z,14.60
2018-04-27T20:49:00.552Z,14.40
2018-04-27T20:51:28.811Z,14.30
2018-04-27T20:54:13.115Z,14.20
2018-04-27T20:56:46.634Z,14.10
2018-04-27T20:59:15.301Z,13.90
2018-04-27T21:01:44.181Z,13.80
2018-04-27T21:04:12.191Z,13.70
2018-04-27T21:06:41.552Z,13.60
2018-04-27T21:09:10.072Z,13.50
2018-04-27T21:11:41.885Z,13.40
2018-04-27T21:14:10.201Z,13.20
2018-04-27T21:16:37.572Z,13.10
2018-04-27T21:19:06.093Z,12.80
2018-04-27T21:21:33.681Z,12.80
2018-04-27T21:24:01.721Z,12.70
2018-04-27T21:26:48.751Z,12.60
2018-04-27T21:29:19.893Z,12.60
2018-04-27T21:31:48.021Z,12.60
2018-04-27T21:34:16.372Z,12.60
2018-04-27T21:36:47.551Z,12.60
2018-04-27T21:39:25.578Z,12.60
2018-04-27T21:41:56.731Z,12.60
2018-04-27T21:44:27.781Z,12.50
2018-04-27T21:47:06.561Z,12.40
2018-04-27T21:49:35.661Z,12.10
2018-04-27T21:52:17.382Z,12.10
2018-04-27T21:54:48.162Z,12.10
2018-04-27T21:57:24.261Z,12.00
2018-04-27T21:59:59.011Z,12.00
2018-04-27T22:02:35.432Z,12.00
2018-04-27T22:05:14.890Z,12.00
2018-04-27T22:07:47.270Z,12.00
2018-04-27T22:10:15.780Z,12.00
2018-04-27T22:12:47.031Z,12.00
2018-04-27T22:15:14.331Z,11.90
2018-04-27T22:17:42.481Z,11.90
2018-04-27T22:20:13.992Z,12.00
2018-04-27T22:22:41.742Z,12.00
2018-04-27T22:25:29.034Z,12.10
2018-04-27T22:28:04.051Z,12.10
2018-04-27T22:30:36.780Z,12.10
2018-04-27T22:33:24.681Z,12.10
2018-04-27T22:36:06.043Z,12.20
2018-04-27T22:42:01.912Z,12.10
2018-04-27T22:44:39.151Z,11.90
2018-04-27T22:47:07.251Z,11.90
2018-04-27T22:49:34.641Z,11.90
2018-04-27T22:52:02.471Z,12.00
2018-04-27T22:54:37.741Z,12.00
2018-04-27T22:57:13.784Z,11.90
2018-04-27T22:59:41.301Z,11.90
2018-04-27T23:02:16.959Z,11.80
2018-04-27T23:04:44.540Z,11.80
2018-04-27T23:07:17.852Z,11.70
2018-04-27T23:09:45.280Z,11.60
2018-04-27T23:12:18.071Z,11.50
2018-04-27T23:14:47.512Z,11.60
2018-04-27T23:17:15.569Z,11.60
2018-04-27T23:19:45.581Z,11.40
2018-04-27T23:22:32.561Z,11.30
2018-04-27T23:25:05.800Z,11.20
2018-04-27T23:27:35.881Z,11.10
2018-04-27T23:30:07.242Z,10.90
2018-04-27T23:32:37.231Z,11.00
2018-04-27T23:35:05.010Z,10.90
2018-04-27T23:37:32.960Z,10.80
2018-04-27T23:40:03.041Z,10.70
2018-04-27T23:42:30.681Z,10.70
2018-04-27T23:44:59.161Z,10.50
2018-04-27T23:47:27.821Z,10.50
2018-04-27T23:49:55.451Z,10.40
2018-04-27T23:52:23.881Z,10.40
2018-04-27T23:54:52.350Z,10.50
2018-04-27T23:57:20.671Z,10.50
2018-04-27T23:59:50.751Z,10.70
